sensor_id;sensor_type;location;lat;lon;timestamp;P1;durP1;ratioP1;P2;durP2;ratioP2
46348;SDS011;32057;47.830;19.046;2024-02-14T00:01:33;2.50;;;1.50;;
46348;SDS011;32057;47.830;19.046;2024-02-14T00:03:58;2.58;;;1.42;;
46348;SDS011;32057;47.830;19.046;2024-02-14T00:06:24;1.85;;;1.50;;
46348;SDS011;32057;47.830;19.046;2024-02-14T00:08:49;2.35;;;1.50;;
46348;SDS011;32057;47.830;19.046;2024-02-14T00:11:15;5.38;;;2.78;;
46348;SDS011;32057;47.830;19.046;2024-02-14T00:13:40;2.60;;;1.70;;
46348;SDS011;32057;47.830;19.046;2024-02-14T00:16:06;1.38;;;1.27;;
46348;SDS011;32057;47.830;19.046;2024-02-14T00:18:31;4.50;;;1.88;;
46348;SDS011;32057;47.830;19.046;2024-02-14T00:20:57;2.70;;;1.70;;
46348;SDS011;32057;47.830;19.046;2024-02-14T00:23:23;2.13;;;1.30;;
46348;SDS011;32057;47.830;19.046;2024-02-14T00:25:48;4.88;;;1.38;;
46348;SDS011;32057;47.830;19.046;2024-02-14T00:28:14;3.30;;;2.00;;
46348;SDS011;32057;47.830;19.046;2024-02-14T00:30:39;2.15;;;1.58;;
46348;SDS011;32057;47.830;19.046;2024-02-14T00:33:04;1.40;;;1.30;;
46348;SDS011;32057;47.830;19.046;2024-02-14T00:35:30;1.98;;;1.27;;
46348;SDS011;32057;47.830;19.046;2024-02-14T00:37:56;3.22;;;1.38;;
46348;SDS011;32057;47.830;19.046;2024-02-14T00:40:21;2.55;;;1.00;;
46348;SDS011;32057;47.830;19.046;2024-02-14T00:42:47;1.55;;;1.17;;
46348;SDS011;32057;47.830;19.046;2024-02-14T00:45:13;1.88;;;1.42;;
46348;SDS011;32057;47.830;19.046;2024-02-14T00:47:38;1.58;;;1.35;;
46348;SDS011;32057;47.830;19.046;2024-02-14T00:50:04;2.15;;;1.23;;
46348;SDS011;32057;47.830;19.046;2024-02-14T00:52:29;1.58;;;1.17;;
46348;SDS011;32057;47.830;19.046;2024-02-14T00:54:55;4.82;;;1.65;;
46348;SDS011;32057;47.830;19.046;2024-02-14T00:57:21;10.02;;;2.15;;
46348;SDS011;32057;47.830;19.046;2024-02-14T00:59:50;6.03;;;1.67;;
46348;SDS011;32057;47.830;19.046;2024-02-14T01:02:16;4.60;;;1.58;;
46348;SDS011;32057;47.830;19.046;2024-02-14T01:04:43;2.88;;;1.50;;
46348;SDS011;32057;47.830;19.046;2024-02-14T01:07:08;11.30;;;2.83;;
46348;SDS011;32057;47.830;19.046;2024-02-14T01:09:33;4.85;;;2.70;;
46348;SDS011;32057;47.830;19.046;2024-02-14T01:11:59;6.70;;;3.03;;
46348;SDS011;32057;47.830;19.046;2024-02-14T01:14:24;1.65;;;1.55;;
46348;SDS011;32057;47.830;19.046;2024-02-14T01:16:49;1.58;;;1.40;;
46348;SDS011;32057;47.830;19.046;2024-02-14T01:19:15;2.45;;;1.45;;
46348;SDS011;32057;47.830;19.046;2024-02-14T01:21:40;1.92;;;1.15;;
46348;SDS011;32057;47.830;19.046;2024-02-14T01:24:05;2.05;;;1.40;;
46348;SDS011;32057;47.830;19.046;2024-02-14T01:26:33;3.05;;;1.33;;
46348;SDS011;32057;47.830;19.046;2024-02-14T01:28:58;1.35;;;1.25;;
46348;SDS011;32057;47.830;19.046;2024-02-14T01:31:26;3.40;;;1.33;;
46348;SDS011;32057;47.830;19.046;2024-02-14T01:33:51;0.80;;;0.80;;
46348;SDS011;32057;47.830;19.046;2024-02-14T01:36:16;3.50;;;1.55;;
46348;SDS011;32057;47.830;19.046;2024-02-14T01:38:42;2.20;;;1.63;;
46348;SDS011;32057;47.830;19.046;2024-02-14T01:41:07;2.08;;;1.25;;
46348;SDS011;32057;47.830;19.046;2024-02-14T01:43:33;1.67;;;1.25;;
46348;SDS011;32057;47.830;19.046;2024-02-14T01:46:02;4.80;;;1.33;;
46348;SDS011;32057;47.830;19.046;2024-02-14T01:48:31;5.38;;;3.00;;
46348;SDS011;32057;47.830;19.046;2024-02-14T01:50:59;5.50;;;3.20;;
46348;SDS011;32057;47.830;19.046;2024-02-14T01:53:26;6.47;;;2.47;;
46348;SDS011;32057;47.830;19.046;2024-02-14T01:55:55;3.30;;;2.28;;
46348;SDS011;32057;47.830;19.046;2024-02-14T01:58:20;2.28;;;2.08;;
46348;SDS011;32057;47.830;19.046;2024-02-14T02:00:46;2.85;;;2.10;;
46348;SDS011;32057;47.830;19.046;2024-02-14T02:03:12;3.15;;;1.88;;
46348;SDS011;32057;47.830;19.046;2024-02-14T02:05:38;1.48;;;1.33;;
46348;SDS011;32057;47.830;19.046;2024-02-14T02:08:03;1.27;;;1.17;;
46348;SDS011;32057;47.830;19.046;2024-02-14T02:10:29;2.15;;;1.52;;
46348;SDS011;32057;47.830;19.046;2024-02-14T02:12:58;3.90;;;1.65;;
46348;SDS011;32057;47.830;19.046;2024-02-14T02:15:25;4.30;;;1.77;;
46348;SDS011;32057;47.830;19.046;2024-02-14T02:17:51;1.25;;;1.15;;
46348;SDS011;32057;47.830;19.046;2024-02-14T02:20:18;3.63;;;1.27;;
46348;SDS011;32057;47.830;19.046;2024-02-14T02:22:47;2.30;;;1.42;;
46348;SDS011;32057;47.830;19.046;2024-02-14T02:25:15;2.22;;;1.77;;
46348;SDS011;32057;47.830;19.046;2024-02-14T02:27:40;1.52;;;1.13;;
46348;SDS011;32057;47.830;19.046;2024-02-14T02:30:06;4.63;;;1.70;;
46348;SDS011;32057;47.830;19.046;2024-02-14T02:32:33;2.42;;;1.88;;
46348;SDS011;32057;47.830;19.046;2024-02-14T02:34:59;5.57;;;3.28;;
46348;SDS011;32057;47.830;19.046;2024-02-14T02:37:27;2.75;;;1.90;;
46348;SDS011;32057;47.830;19.046;2024-02-14T02:39:55;3.88;;;1.90;;
46348;SDS011;32057;47.830;19.046;2024-02-14T02:42:23;4.15;;;2.38;;
46348;SDS011;32057;47.830;19.046;2024-02-14T02:44:51;2.58;;;1.50;;
46348;SDS011;32057;47.830;19.046;2024-02-14T02:47:17;2.75;;;1.60;;
46348;SDS011;32057;47.830;19.046;2024-02-14T02:49:43;2.05;;;1.13;;
46348;SDS011;32057;47.830;19.046;2024-02-14T02:52:09;2.28;;;1.35;;
46348;SDS011;32057;47.830;19.046;2024-02-14T02:54:35;1.08;;;0.70;;
46348;SDS011;32057;47.830;19.046;2024-02-14T02:57:01;1.23;;;1.08;;
46348;SDS011;32057;47.830;19.046;2024-02-14T02:59:28;3.67;;;1.75;;
46348;SDS011;32057;47.830;19.046;2024-02-14T03:01:54;0.95;;;0.80;;
46348;SDS011;32057;47.830;19.046;2024-02-14T03:04:20;1.17;;;1.15;;
46348;SDS011;32057;47.830;19.046;2024-02-14T03:06:46;1.65;;;1.35;;
46348;SDS011;32057;47.830;19.046;2024-02-14T03:09:11;1.35;;;1.25;;
46348;SDS011;32057;47.830;19.046;2024-02-14T03:11:37;2.17;;;1.05;;
46348;SDS011;32057;47.830;19.046;2024-02-14T03:14:03;3.05;;;1.55;;
46348;SDS011;32057;47.830;19.046;2024-02-14T03:16:28;1.85;;;1.17;;
46348;SDS011;32057;47.830;19.046;2024-02-14T03:18:55;0.75;;;0.70;;
46348;SDS011;32057;47.830;19.046;2024-02-14T03:21:20;2.38;;;1.80;;
46348;SDS011;32057;47.830;19.046;2024-02-14T03:23:45;4.82;;;2.38;;
46348;SDS011;32057;47.830;19.046;2024-02-14T03:26:11;4.40;;;1.65;;
46348;SDS011;32057;47.830;19.046;2024-02-14T03:28:36;2.40;;;1.40;;
46348;SDS011;32057;47.830;19.046;2024-02-14T03:31:01;1.27;;;1.17;;
46348;SDS011;32057;47.830;19.046;2024-02-14T03:33:27;1.55;;;1.13;;
46348;SDS011;32057;47.830;19.046;2024-02-14T03:35:54;4.20;;;2.67;;
46348;SDS011;32057;47.830;19.046;2024-02-14T03:38:26;2.03;;;1.20;;
46348;SDS011;32057;47.830;19.046;2024-02-14T03:40:52;1.33;;;1.23;;
46348;SDS011;32057;47.830;19.046;2024-02-14T03:43:18;1.00;;;0.95;;
46348;SDS011;32057;47.830;19.046;2024-02-14T03:45:44;2.20;;;2.03;;
46348;SDS011;32057;47.830;19.046;2024-02-14T03:48:11;2.78;;;1.70;;
46348;SDS011;32057;47.830;19.046;2024-02-14T03:50:38;2.17;;;1.20;;
46348;SDS011;32057;47.830;19.046;2024-02-14T03:53:04;0.95;;;0.93;;
46348;SDS011;32057;47.830;19.046;2024-02-14T03:55:29;3.90;;;2.47;;
46348;SDS011;32057;47.830;19.046;2024-02-14T03:57:55;1.63;;;1.52;;
46348;SDS011;32057;47.830;19.046;2024-02-14T04:00:21;2.38;;;1.52;;
46348;SDS011;32057;47.830;19.046;2024-02-14T04:02:47;2.33;;;1.80;;
46348;SDS011;32057;47.830;19.046;2024-02-14T04:05:13;0.98;;;0.98;;
46348;SDS011;32057;47.830;19.046;2024-02-14T04:07:39;3.63;;;2.20;;
46348;SDS011;32057;47.830;19.046;2024-02-14T04:10:05;3.50;;;1.90;;
46348;SDS011;32057;47.830;19.046;2024-02-14T04:12:31;2.83;;;1.45;;
46348;SDS011;32057;47.830;19.046;2024-02-14T04:14:56;2.08;;;1.65;;
46348;SDS011;32057;47.830;19.046;2024-02-14T04:17:22;4.03;;;2.17;;
46348;SDS011;32057;47.830;19.046;2024-02-14T04:19:48;4.70;;;2.15;;
46348;SDS011;32057;47.830;19.046;2024-02-14T04:22:14;2.05;;;1.45;;
46348;SDS011;32057;47.830;19.046;2024-02-14T04:24:39;1.77;;;1.67;;
46348;SDS011;32057;47.830;19.046;2024-02-14T04:27:04;2.58;;;2.10;;
46348;SDS011;32057;47.830;19.046;2024-02-14T04:29:30;2.90;;;1.50;;
46348;SDS011;32057;47.830;19.046;2024-02-14T04:31:58;11.85;;;2.42;;
46348;SDS011;32057;47.830;19.046;2024-02-14T04:34:24;4.97;;;1.35;;
46348;SDS011;32057;47.830;19.046;2024-02-14T04:36:49;3.78;;;2.70;;
46348;SDS011;32057;47.830;19.046;2024-02-14T04:39:14;2.92;;;2.50;;
46348;SDS011;32057;47.830;19.046;2024-02-14T04:41:40;6.22;;;4.75;;
46348;SDS011;32057;47.830;19.046;2024-02-14T04:44:05;2.13;;;1.95;;
46348;SDS011;32057;47.830;19.046;2024-02-14T04:46:32;3.17;;;1.77;;
46348;SDS011;32057;47.830;19.046;2024-02-14T04:48:57;3.85;;;2.55;;
46348;SDS011;32057;47.830;19.046;2024-02-14T04:51:23;2.47;;;2.25;;
46348;SDS011;32057;47.830;19.046;2024-02-14T04:53:48;4.32;;;2.50;;
46348;SDS011;32057;47.830;19.046;2024-02-14T04:56:15;3.05;;;2.65;;
46348;SDS011;32057;47.830;19.046;2024-02-14T04:58:40;4.03;;;1.83;;
46348;SDS011;32057;47.830;19.046;2024-02-14T05:01:06;3.25;;;2.58;;
46348;SDS011;32057;47.830;19.046;2024-02-14T05:03:37;8.10;;;2.88;;
46348;SDS011;32057;47.830;19.046;2024-02-14T05:06:02;4.53;;;2.10;;
46348;SDS011;32057;47.830;19.046;2024-02-14T05:08:28;6.10;;;2.35;;
46348;SDS011;32057;47.830;19.046;2024-02-14T05:10:55;2.17;;;1.88;;
46348;SDS011;32057;47.830;19.046;2024-02-14T05:13:20;4.07;;;2.25;;
46348;SDS011;32057;47.830;19.046;2024-02-14T05:15:45;2.67;;;2.13;;
46348;SDS011;32057;47.830;19.046;2024-02-14T05:18:10;6.68;;;3.15;;
46348;SDS011;32057;47.830;19.046;2024-02-14T05:20:36;5.38;;;2.35;;
46348;SDS011;32057;47.830;19.046;2024-02-14T05:23:03;3.72;;;2.20;;
46348;SDS011;32057;47.830;19.046;2024-02-14T05:25:30;3.45;;;1.38;;
46348;SDS011;32057;47.830;19.046;2024-02-14T05:27:57;1.95;;;1.85;;
46348;SDS011;32057;47.830;19.046;2024-02-14T05:30:23;7.57;;;2.30;;
46348;SDS011;32057;47.830;19.046;2024-02-14T05:32:49;2.83;;;2.38;;
46348;SDS011;32057;47.830;19.046;2024-02-14T05:35:17;7.28;;;3.45;;
46348;SDS011;32057;47.830;19.046;2024-02-14T05:37:42;5.25;;;3.08;;
46348;SDS011;32057;47.830;19.046;2024-02-14T05:40:08;9.30;;;4.35;;
46348;SDS011;32057;47.830;19.046;2024-02-14T05:42:33;1.88;;;1.73;;
46348;SDS011;32057;47.830;19.046;2024-02-14T05:44:59;1.92;;;1.83;;
46348;SDS011;32057;47.830;19.046;2024-02-14T05:47:24;20.75;;;3.47;;
46348;SDS011;32057;47.830;19.046;2024-02-14T05:49:50;1.70;;;1.58;;
46348;SDS011;32057;47.830;19.046;2024-02-14T05:52:15;1.95;;;1.48;;
46348;SDS011;32057;47.830;19.046;2024-02-14T05:54:41;7.32;;;3.20;;
46348;SDS011;32057;47.830;19.046;2024-02-14T05:57:07;6.90;;;3.28;;
46348;SDS011;32057;47.830;19.046;2024-02-14T05:59:33;2.85;;;2.55;;
46348;SDS011;32057;47.830;19.046;2024-02-14T06:01:58;10.00;;;2.72;;
46348;SDS011;32057;47.830;19.046;2024-02-14T06:04:23;14.77;;;5.68;;
46348;SDS011;32057;47.830;19.046;2024-02-14T06:06:49;4.35;;;2.03;;
46348;SDS011;32057;47.830;19.046;2024-02-14T06:09:14;8.60;;;2.15;;
46348;SDS011;32057;47.830;19.046;2024-02-14T06:11:39;2.92;;;1.83;;
46348;SDS011;32057;47.830;19.046;2024-02-14T06:14:05;1.83;;;1.50;;
46348;SDS011;32057;47.830;19.046;2024-02-14T06:16:34;2.92;;;2.30;;
46348;SDS011;32057;47.830;19.046;2024-02-14T06:19:00;6.05;;;2.92;;
46348;SDS011;32057;47.830;19.046;2024-02-14T06:21:25;5.82;;;3.63;;
46348;SDS011;32057;47.830;19.046;2024-02-14T06:23:51;14.20;;;3.83;;
46348;SDS011;32057;47.830;19.046;2024-02-14T06:26:17;19.55;;;7.60;;
46348;SDS011;32057;47.830;19.046;2024-02-14T06:28:42;29.33;;;10.95;;
46348;SDS011;32057;47.830;19.046;2024-02-14T06:31:08;23.75;;;9.65;;
46348;SDS011;32057;47.830;19.046;2024-02-14T06:33:35;12.73;;;5.15;;
46348;SDS011;32057;47.830;19.046;2024-02-14T06:36:00;7.95;;;4.70;;
46348;SDS011;32057;47.830;19.046;2024-02-14T06:38:26;23.70;;;8.23;;
46348;SDS011;32057;47.830;19.046;2024-02-14T06:40:51;24.33;;;10.05;;
46348;SDS011;32057;47.830;19.046;2024-02-14T06:43:16;20.45;;;8.68;;
46348;SDS011;32057;47.830;19.046;2024-02-14T06:45:42;14.38;;;7.28;;
46348;SDS011;32057;47.830;19.046;2024-02-14T06:48:07;8.43;;;4.78;;
46348;SDS011;32057;47.830;19.046;2024-02-14T06:50:33;8.23;;;4.32;;
46348;SDS011;32057;47.830;19.046;2024-02-14T06:52:59;3.28;;;2.47;;
46348;SDS011;32057;47.830;19.046;2024-02-14T06:55:25;11.05;;;5.57;;
46348;SDS011;32057;47.830;19.046;2024-02-14T06:57:56;25.27;;;8.73;;
46348;SDS011;32057;47.830;19.046;2024-02-14T07:00:22;16.70;;;8.07;;
46348;SDS011;32057;47.830;19.046;2024-02-14T07:02:47;6.38;;;3.35;;
46348;SDS011;32057;47.830;19.046;2024-02-14T07:05:13;14.13;;;7.32;;
46348;SDS011;32057;47.830;19.046;2024-02-14T07:07:39;13.85;;;7.47;;
46348;SDS011;32057;47.830;19.046;2024-02-14T07:10:05;9.77;;;6.07;;
46348;SDS011;32057;47.830;19.046;2024-02-14T07:12:31;7.13;;;4.68;;
46348;SDS011;32057;47.830;19.046;2024-02-14T07:14:57;9.90;;;5.45;;
46348;SDS011;32057;47.830;19.046;2024-02-14T07:17:22;22.95;;;6.50;;
46348;SDS011;32057;47.830;19.046;2024-02-14T07:19:48;16.10;;;7.55;;
46348;SDS011;32057;47.830;19.046;2024-02-14T07:22:15;17.88;;;6.70;;
46348;SDS011;32057;47.830;19.046;2024-02-14T07:24:41;12.68;;;5.80;;
46348;SDS011;32057;47.830;19.046;2024-02-14T07:27:07;12.80;;;5.90;;
46348;SDS011;32057;47.830;19.046;2024-02-14T07:29:32;21.77;;;9.32;;
46348;SDS011;32057;47.830;19.046;2024-02-14T07:32:01;18.98;;;9.93;;
46348;SDS011;32057;47.830;19.046;2024-02-14T07:34:27;7.95;;;5.97;;
46348;SDS011;32057;47.830;19.046;2024-02-14T07:36:52;20.90;;;8.93;;
46348;SDS011;32057;47.830;19.046;2024-02-14T07:39:17;22.50;;;6.65;;
46348;SDS011;32057;47.830;19.046;2024-02-14T07:41:42;13.40;;;6.90;;
46348;SDS011;32057;47.830;19.046;2024-02-14T07:44:08;4.90;;;3.88;;
46348;SDS011;32057;47.830;19.046;2024-02-14T07:46:33;16.77;;;11.48;;
46348;SDS011;32057;47.830;19.046;2024-02-14T07:48:58;18.10;;;8.00;;
46348;SDS011;32057;47.830;19.046;2024-02-14T07:51:24;8.32;;;5.82;;
46348;SDS011;32057;47.830;19.046;2024-02-14T07:53:50;7.75;;;5.85;;
46348;SDS011;32057;47.830;19.046;2024-02-14T07:56:16;8.93;;;3.97;;
46348;SDS011;32057;47.830;19.046;2024-02-14T07:58:43;11.63;;;5.05;;
46348;SDS011;32057;47.830;19.046;2024-02-14T08:01:08;9.15;;;7.25;;
46348;SDS011;32057;47.830;19.046;2024-02-14T08:03:34;12.73;;;7.03;;
46348;SDS011;32057;47.830;19.046;2024-02-14T08:05:59;7.00;;;4.20;;
46348;SDS011;32057;47.830;19.046;2024-02-14T08:08:25;8.32;;;4.82;;
46348;SDS011;32057;47.830;19.046;2024-02-14T08:10:52;7.53;;;4.50;;
46348;SDS011;32057;47.830;19.046;2024-02-14T08:13:19;4.55;;;3.35;;
46348;SDS011;32057;47.830;19.046;2024-02-14T08:15:44;8.88;;;4.32;;
46348;SDS011;32057;47.830;19.046;2024-02-14T08:18:10;10.30;;;4.32;;
46348;SDS011;32057;47.830;19.046;2024-02-14T08:20:37;11.70;;;5.03;;
46348;SDS011;32057;47.830;19.046;2024-02-14T08:23:02;7.50;;;4.63;;
46348;SDS011;32057;47.830;19.046;2024-02-14T08:25:28;6.13;;;3.63;;
46348;SDS011;32057;47.830;19.046;2024-02-14T08:27:56;6.78;;;3.88;;
46348;SDS011;32057;47.830;19.046;2024-02-14T08:30:21;5.95;;;3.58;;
46348;SDS011;32057;47.830;19.046;2024-02-14T08:32:46;9.10;;;5.13;;
46348;SDS011;32057;47.830;19.046;2024-02-14T08:35:12;8.73;;;4.63;;
46348;SDS011;32057;47.830;19.046;2024-02-14T08:37:38;6.03;;;3.88;;
46348;SDS011;32057;47.830;19.046;2024-02-14T08:40:05;6.88;;;4.47;;
46348;SDS011;32057;47.830;19.046;2024-02-14T08:42:32;4.78;;;3.60;;
46348;SDS011;32057;47.830;19.046;2024-02-14T08:44:58;5.30;;;3.92;;
46348;SDS011;32057;47.830;19.046;2024-02-14T08:47:23;6.35;;;4.07;;
46348;SDS011;32057;47.830;19.046;2024-02-14T08:49:49;4.05;;;3.47;;
46348;SDS011;32057;47.830;19.046;2024-02-14T08:52:14;5.10;;;3.92;;
46348;SDS011;32057;47.830;19.046;2024-02-14T08:54:40;4.45;;;3.30;;
46348;SDS011;32057;47.830;19.046;2024-02-14T08:57:05;4.65;;;2.75;;
46348;SDS011;32057;47.830;19.046;2024-02-14T08:59:30;5.18;;;3.75;;
46348;SDS011;32057;47.830;19.046;2024-02-14T09:01:55;6.85;;;3.20;;
46348;SDS011;32057;47.830;19.046;2024-02-14T09:04:21;3.05;;;2.35;;
46348;SDS011;32057;47.830;19.046;2024-02-14T09:06:47;4.22;;;2.85;;
46348;SDS011;32057;47.830;19.046;2024-02-14T09:09:12;5.13;;;2.97;;
46348;SDS011;32057;47.830;19.046;2024-02-14T09:11:39;3.88;;;3.00;;
46348;SDS011;32057;47.830;19.046;2024-02-14T09:14:05;3.35;;;2.50;;
46348;SDS011;32057;47.830;19.046;2024-02-14T09:16:32;3.95;;;2.50;;
46348;SDS011;32057;47.830;19.046;2024-02-14T09:19:00;10.23;;;2.97;;
46348;SDS011;32057;47.830;19.046;2024-02-14T09:21:26;4.78;;;3.05;;
46348;SDS011;32057;47.830;19.046;2024-02-14T09:23:52;5.38;;;2.85;;
46348;SDS011;32057;47.830;19.046;2024-02-14T09:26:18;6.43;;;3.47;;
46348;SDS011;32057;47.830;19.046;2024-02-14T09:28:43;2.97;;;2.63;;
46348;SDS011;32057;47.830;19.046;2024-02-14T09:31:09;2.92;;;2.25;;
46348;SDS011;32057;47.830;19.046;2024-02-14T09:33:36;3.08;;;1.98;;
46348;SDS011;32057;47.830;19.046;2024-02-14T09:36:02;3.20;;;2.90;;
46348;SDS011;32057;47.830;19.046;2024-02-14T09:38:29;5.47;;;3.05;;
46348;SDS011;32057;47.830;19.046;2024-02-14T09:40:54;4.15;;;3.13;;
46348;SDS011;32057;47.830;19.046;2024-02-14T09:45:57;5.50;;;3.88;;
46348;SDS011;32057;47.830;19.046;2024-02-14T09:48:23;4.80;;;3.10;;
46348;SDS011;32057;47.830;19.046;2024-02-14T09:50:48;4.80;;;3.35;;
46348;SDS011;32057;47.830;19.046;2024-02-14T09:53:14;7.03;;;2.85;;
46348;SDS011;32057;47.830;19.046;2024-02-14T09:55:40;4.75;;;2.40;;
46348;SDS011;32057;47.830;19.046;2024-02-14T09:58:06;5.75;;;3.45;;
46348;SDS011;32057;47.830;19.046;2024-02-14T10:00:32;4.60;;;3.03;;
46348;SDS011;32057;47.830;19.046;2024-02-14T10:03:00;4.90;;;3.72;;
46348;SDS011;32057;47.830;19.046;2024-02-14T10:05:26;5.68;;;2.95;;
46348;SDS011;32057;47.830;19.046;2024-02-14T10:07:51;11.10;;;2.78;;
46348;SDS011;32057;47.830;19.046;2024-02-14T10:10:16;3.10;;;2.78;;
46348;SDS011;32057;47.830;19.046;2024-02-14T10:12:42;4.90;;;2.53;;
46348;SDS011;32057;47.830;19.046;2024-02-14T10:15:07;4.63;;;2.45;;
46348;SDS011;32057;47.830;19.046;2024-02-14T10:17:33;3.50;;;2.85;;
46348;SDS011;32057;47.830;19.046;2024-02-14T10:19:59;2.92;;;2.63;;
46348;SDS011;32057;47.830;19.046;2024-02-14T10:22:39;13.45;;;2.45;;
46348;SDS011;32057;47.830;19.046;2024-02-14T10:25:06;6.63;;;3.63;;
46348;SDS011;32057;47.830;19.046;2024-02-14T10:27:34;4.38;;;2.45;;
46348;SDS011;32057;47.830;19.046;2024-02-14T10:30:02;7.00;;;3.08;;
46348;SDS011;32057;47.830;19.046;2024-02-14T10:32:29;8.05;;;2.85;;
46348;SDS011;32057;47.830;19.046;2024-02-14T10:34:55;3.95;;;2.17;;
46348;SDS011;32057;47.830;19.046;2024-02-14T10:37:21;4.57;;;1.80;;
46348;SDS011;32057;47.830;19.046;2024-02-14T10:39:46;5.63;;;1.98;;
46348;SDS011;32057;47.830;19.046;2024-02-14T10:42:13;3.53;;;2.53;;
46348;SDS011;32057;47.830;19.046;2024-02-14T10:44:40;4.32;;;3.05;;
46348;SDS011;32057;47.830;19.046;2024-02-14T10:47:07;2.03;;;1.55;;
46348;SDS011;32057;47.830;19.046;2024-02-14T10:49:35;5.07;;;1.75;;
46348;SDS011;32057;47.830;19.046;2024-02-14T10:52:05;1.73;;;1.33;;
46348;SDS011;32057;47.830;19.046;2024-02-14T10:54:32;2.45;;;1.27;;
46348;SDS011;32057;47.830;19.046;2024-02-14T10:57:02;1.17;;;1.13;;
46348;SDS011;32057;47.830;19.046;2024-02-14T10:59:32;6.25;;;1.77;;
46348;SDS011;32057;47.830;19.046;2024-02-14T11:01:59;1.65;;;0.73;;
46348;SDS011;32057;47.830;19.046;2024-02-14T11:04:25;1.13;;;1.02;;
46348;SDS011;32057;47.830;19.046;2024-02-14T11:06:53;1.77;;;1.23;;
46348;SDS011;32057;47.830;19.046;2024-02-14T11:09:21;0.60;;;0.60;;
46348;SDS011;32057;47.830;19.046;2024-02-14T11:11:47;1.92;;;1.23;;
46348;SDS011;32057;47.830;19.046;2024-02-14T11:14:15;1.05;;;0.95;;
46348;SDS011;32057;47.830;19.046;2024-02-14T11:16:45;2.90;;;1.42;;
46348;SDS011;32057;47.830;19.046;2024-02-14T11:19:11;2.97;;;0.98;;
46348;SDS011;32057;47.830;19.046;2024-02-14T11:21:41;1.20;;;1.10;;
46348;SDS011;32057;47.830;19.046;2024-02-14T11:24:10;1.17;;;0.82;;
46348;SDS011;32057;47.830;19.046;2024-02-14T11:26:39;1.08;;;0.93;;
46348;SDS011;32057;47.830;19.046;2024-02-14T11:29:19;1.47;;;0.80;;
46348;SDS011;32057;47.830;19.046;2024-02-14T11:31:45;1.10;;;1.00;;
46348;SDS011;32057;47.830;19.046;2024-02-14T11:34:14;0.80;;;0.80;;
46348;SDS011;32057;47.830;19.046;2024-02-14T11:36:44;0.77;;;0.57;;
46348;SDS011;32057;47.830;19.046;2024-02-14T11:39:13;0.82;;;0.82;;
46348;SDS011;32057;47.830;19.046;2024-02-14T11:41:39;1.10;;;0.80;;
46348;SDS011;32057;47.830;19.046;2024-02-14T11:44:05;2.15;;;1.52;;
46348;SDS011;32057;47.830;19.046;2024-02-14T11:46:31;2.15;;;1.00;;
46348;SDS011;32057;47.830;19.046;2024-02-14T11:48:57;1.55;;;1.10;;
46348;SDS011;32057;47.830;19.046;2024-02-14T11:51:25;1.17;;;1.08;;
46348;SDS011;32057;47.830;19.046;2024-02-14T11:53:52;1.35;;;1.05;;
46348;SDS011;32057;47.830;19.046;2024-02-14T11:56:17;0.95;;;0.80;;
46348;SDS011;32057;47.830;19.046;2024-02-14T11:58:43;0.90;;;0.90;;
46348;SDS011;32057;47.830;19.046;2024-02-14T12:01:08;11.35;;;1.13;;
46348;SDS011;32057;47.830;19.046;2024-02-14T12:03:34;15.60;;;2.33;;
46348;SDS011;32057;47.830;19.046;2024-02-14T12:06:00;1.67;;;1.55;;
46348;SDS011;32057;47.830;19.046;2024-02-14T12:08:28;1.95;;;1.05;;
46348;SDS011;32057;47.830;19.046;2024-02-14T12:10:53;1.98;;;0.95;;
46348;SDS011;32057;47.830;19.046;2024-02-14T12:13:22;1.30;;;1.13;;
46348;SDS011;32057;47.830;19.046;2024-02-14T12:15:48;1.77;;;1.23;;
46348;SDS011;32057;47.830;19.046;2024-02-14T12:18:19;4.70;;;1.48;;
46348;SDS011;32057;47.830;19.046;2024-02-14T12:20:45;1.58;;;1.33;;
46348;SDS011;32057;47.830;19.046;2024-02-14T12:23:14;1.20;;;1.02;;
46348;SDS011;32057;47.830;19.046;2024-02-14T12:25:44;2.40;;;1.48;;
46348;SDS011;32057;47.830;19.046;2024-02-14T12:28:17;1.75;;;1.08;;
46348;SDS011;32057;47.830;19.046;2024-02-14T12:30:44;2.60;;;1.40;;
46348;SDS011;32057;47.830;19.046;2024-02-14T12:33:14;1.63;;;1.52;;
46348;SDS011;32057;47.830;19.046;2024-02-14T12:35:46;3.17;;;1.52;;
46348;SDS011;32057;47.830;19.046;2024-02-14T12:38:13;2.33;;;1.00;;
46348;SDS011;32057;47.830;19.046;2024-02-14T12:40:41;1.77;;;1.27;;
46348;SDS011;32057;47.830;19.046;2024-02-14T12:43:07;3.78;;;1.27;;
46348;SDS011;32057;47.830;19.046;2024-02-14T12:45:33;6.55;;;2.70;;
46348;SDS011;32057;47.830;19.046;2024-02-14T12:47:58;6.15;;;2.05;;
46348;SDS011;32057;47.830;19.046;2024-02-14T12:50:24;1.42;;;1.33;;
46348;SDS011;32057;47.830;19.046;2024-02-14T12:52:50;3.90;;;1.60;;
46348;SDS011;32057;47.830;19.046;2024-02-14T12:55:15;3.38;;;1.52;;
46348;SDS011;32057;47.830;19.046;2024-02-14T12:57:41;0.93;;;0.85;;
46348;SDS011;32057;47.830;19.046;2024-02-14T13:00:06;12.75;;;2.47;;
46348;SDS011;32057;47.830;19.046;2024-02-14T13:02:34;1.85;;;1.50;;
46348;SDS011;32057;47.830;19.046;2024-02-14T13:05:00;1.55;;;1.45;;
46348;SDS011;32057;47.830;19.046;2024-02-14T13:07:27;1.50;;;1.40;;
46348;SDS011;32057;47.830;19.046;2024-02-14T13:09:52;1.95;;;1.73;;
46348;SDS011;32057;47.830;19.046;2024-02-14T13:12:18;4.28;;;1.35;;
46348;SDS011;32057;47.830;19.046;2024-02-14T13:14:43;1.00;;;0.90;;
46348;SDS011;32057;47.830;19.046;2024-02-14T13:17:09;2.55;;;1.65;;
46348;SDS011;32057;47.830;19.046;2024-02-14T13:19:35;1.65;;;1.40;;
46348;SDS011;32057;47.830;19.046;2024-02-14T13:22:01;3.10;;;1.38;;
46348;SDS011;32057;47.830;19.046;2024-02-14T13:24:27;1.67;;;1.58;;
46348;SDS011;32057;47.830;19.046;2024-02-14T13:26:53;2.20;;;1.77;;
46348;SDS011;32057;47.830;19.046;2024-02-14T13:29:18;3.03;;;1.80;;
46348;SDS011;32057;47.830;19.046;2024-02-14T13:31:44;3.70;;;2.40;;
46348;SDS011;32057;47.830;19.046;2024-02-14T13:34:09;4.07;;;2.10;;
46348;SDS011;32057;47.830;19.046;2024-02-14T13:36:36;4.93;;;2.33;;
46348;SDS011;32057;47.830;19.046;2024-02-14T13:39:02;4.20;;;3.80;;
46348;SDS011;32057;47.830;19.046;2024-02-14T13:41:27;2.72;;;2.17;;
46348;SDS011;32057;47.830;19.046;2024-02-14T13:43:53;9.18;;;2.88;;
46348;SDS011;32057;47.830;19.046;2024-02-14T13:46:19;10.05;;;3.88;;
46348;SDS011;32057;47.830;19.046;2024-02-14T13:48:44;6.63;;;2.28;;
46348;SDS011;32057;47.830;19.046;2024-02-14T13:51:09;4.82;;;2.38;;
46348;SDS011;32057;47.830;19.046;2024-02-14T13:53:35;3.30;;;2.50;;
46348;SDS011;32057;47.830;19.046;2024-02-14T13:56:00;2.97;;;2.15;;
46348;SDS011;32057;47.830;19.046;2024-02-14T13:58:26;2.92;;;2.20;;
46348;SDS011;32057;47.830;19.046;2024-02-14T14:00:51;5.30;;;2.22;;
46348;SDS011;32057;47.830;19.046;2024-02-14T14:03:17;4.70;;;2.50;;
46348;SDS011;32057;47.830;19.046;2024-02-14T14:05:43;3.80;;;2.38;;
46348;SDS011;32057;47.830;19.046;2024-02-14T14:08:08;7.57;;;3.28;;
46348;SDS011;32057;47.830;19.046;2024-02-14T14:10:34;6.20;;;2.92;;
46348;SDS011;32057;47.830;19.046;2024-02-14T14:12:59;5.85;;;3.05;;
46348;SDS011;32057;47.830;19.046;2024-02-14T14:15:24;9.38;;;4.15;;
46348;SDS011;32057;47.830;19.046;2024-02-14T14:17:51;4.60;;;3.30;;
46348;SDS011;32057;47.830;19.046;2024-02-14T14:20:17;5.50;;;3.00;;
46348;SDS011;32057;47.830;19.046;2024-02-14T14:22:43;1.85;;;1.73;;
46348;SDS011;32057;47.830;19.046;2024-02-14T14:25:09;6.18;;;2.65;;
46348;SDS011;32057;47.830;19.046;2024-02-14T14:27:34;7.05;;;3.30;;
46348;SDS011;32057;47.830;19.046;2024-02-14T14:30:00;4.97;;;2.30;;